Alton, UT

3:06 AM MDT on October 18, 2019 (GMT -0600)
Swains Creek | | Change Station

Elev 7990 ft 37.48 °N, 112.61 °W | Updated 10 seconds ago

Partly Cloudy
Partly Cloudy
41.54 °F
Feels Like 42 °F
N
0
Wind Variable Wind from NE
Gusts 7.2 mph

Today
High -- | Low -- °F
--% Chance of Precip.
Yesterday
High -- | Low -- °F
Precip. -- in
Pressure 29.62 in
Visibility 10.0 miles
Clouds Scattered Clouds 7500 ft
Mostly Cloudy 9000 ft
Windchill 42 °F
Dew Point 18 °F
Humidity 39%
Rainfall 0.00 in
Snow Depth Not available.
7:40 AM 6:48 PM
Waning Gibbous, 81% visible
METAR KBCE 180853Z AUTO 03013KT 10SM SCT075 BKN090 04/M02 A2990 RMK AO2 SLP031 T00441017 53014
Pressure 29.62 in
Visibility 10.0 miles
Clouds Scattered Clouds 7500 ft
Mostly Cloudy 9000 ft
Windchill 42 °F
Dew Point 18 °F
Humidity 39%
Rainfall 0.00 in
Snow Depth Not available.
7:40 AM 6:48 PM
Waning Gibbous, 81% visible
METAR KBCE 180853Z AUTO 03013KT 10SM SCT075 BKN090 04/M02 A2990 RMK AO2 SLP031 T00441017 53014

Get Severe Weather Alerts

Thanks for signing up!

Be on the lookout for a verification email in your inbox.

You'll start receiving the daily forecast at 6 AM.

×

10-Day Weather Forecast

Almanac

Astronomy

Oct. 18, 2019 Rise Set
Actual Time
Civil Twilight
Nautical Twilight
Astronomical Twilight
Moon
Length of Visible Light
Length of Day
Tomorrow will be .
, % of the Moon is Illuminated

Today's Extremes

State Highs State Lows

Community

WunderPhotos

Category 6

Welcome to Category 6. This is the collective home for Weather Underground's featured writeups by Dr. Jeff Masters (right), Bob Henson (left), Chris Burt, and other regular contributors.

Nearby

Air Quality

  Air Quality AQ Index Pollutant
Not available.

Snow Depth

Station Depth Elevation

Earthquake Activity

City Distance Mag. Time & Date
Minimum magnitude displayed is 2.5.

Coastal Water Temperatures

Place Temperature

Stations

Nearby Weather Stations

Station Location Temp. Windchill Dew Point Humidity Wind Precip. Elev Updated Type
                   

Watches & Warnings

There are currently no watches in effect.